createdAt,value
2019-05-05T00:02:34.389Z,87.00
2019-05-05T00:05:11.242Z,87.10
2019-05-05T00:07:41.570Z,87.40
2019-05-05T00:10:15.150Z,87.50
2019-05-05T00:13:05.303Z,87.40
2019-05-05T00:15:52.343Z,88.00
2019-05-05T00:18:25.232Z,88.20
2019-05-05T00:20:56.803Z,89.30
2019-05-05T00:23:27.133Z,89.50
2019-05-05T00:25:57.461Z,88.80
2019-05-05T00:28:27.803Z,88.50
2019-05-05T00:30:58.135Z,88.50
2019-05-05T00:33:28.472Z,88.60
2019-05-05T00:35:59.444Z,88.60
2019-05-05T00:38:29.782Z,88.90
2019-05-05T00:41:00.110Z,89.10
2019-05-05T00:43:30.440Z,89.20
2019-05-05T00:46:04.578Z,89.00
2019-05-05T00:48:39.021Z,89.00
2019-05-05T00:51:09.350Z,88.90
2019-05-05T00:53:39.682Z,88.90
2019-05-05T00:56:10.011Z,88.80
2019-05-05T00:58:55.259Z,88.90
2019-05-05T01:01:28.284Z,89.10
2019-05-05T01:03:59.884Z,89.80
2019-05-05T01:06:31.849Z,89.60
2019-05-05T01:09:04.311Z,89.30
2019-05-05T01:11:35.788Z,89.10
2019-05-05T01:14:06.183Z,89.30
2019-05-05T01:16:36.509Z,89.60
2019-05-05T01:19:06.914Z,89.80
2019-05-05T01:21:37.316Z,90.00
2019-05-05T01:24:15.173Z,90.30
2019-05-05T01:26:48.627Z,90.30
2019-05-05T01:29:18.984Z,90.40
2019-05-05T01:31:49.312Z,90.50
2019-05-05T01:37:36.019Z,90.70
2019-05-05T01:40:17.376Z,90.80
2019-05-05T01:42:47.714Z,90.80
2019-05-05T01:45:19.017Z,90.70
2019-05-05T01:47:49.366Z,90.60
2019-05-05T01:50:21.294Z,90.50
2019-05-05T01:52:51.902Z,90.60
2019-05-05T01:55:22.241Z,90.60
2019-05-05T01:57:54.327Z,90.80
2019-05-05T02:00:25.354Z,91.10
2019-05-05T02:02:56.011Z,91.20
2019-05-05T02:05:26.335Z,91.40
2019-05-05T02:08:15.996Z,91.50
2019-05-05T02:10:46.337Z,91.60
2019-05-05T02:13:36.004Z,91.60
2019-05-05T02:16:09.670Z,91.70
2019-05-05T02:18:39.997Z,91.60
2019-05-05T02:21:10.333Z,91.60
2019-05-05T02:23:40.669Z,91.70
2019-05-05T02:26:11.065Z,91.60
2019-05-05T02:28:54.136Z,91.60
2019-05-05T02:32:01.706Z,91.60
2019-05-05T02:34:35.838Z,91.70
2019-05-05T02:37:05.794Z,91.60
2019-05-05T02:39:41.168Z,91.70
2019-05-05T02:42:08.255Z,91.70
2019-05-05T02:44:39.392Z,91.60
2019-05-05T02:47:25.841Z,91.50
2019-05-05T02:50:16.668Z,91.40
2019-05-05T02:52:48.143Z,91.50
2019-05-05T02:55:20.888Z,91.90
2019-05-05T02:57:51.627Z,91.50
2019-05-05T03:03:21.433Z,91.70
2019-05-05T03:05:53.880Z,91.50
2019-05-05T03:08:26.113Z,91.50
2019-05-05T03:10:59.323Z,91.50
2019-05-05T03:13:33.716Z,91.70
2019-05-05T03:16:18.117Z,91.70
2019-05-05T03:19:00.920Z,91.70
2019-05-05T03:21:33.519Z,91.80
2019-05-05T03:24:07.062Z,91.80
2019-05-05T03:26:37.753Z,91.80
2019-05-05T03:29:10.566Z,91.90
2019-05-05T03:31:41.242Z,91.80
2019-05-05T03:34:11.913Z,91.80
2019-05-05T03:36:44.179Z,91.80
2019-05-05T03:39:16.576Z,91.80
2019-05-05T03:42:05.699Z,91.70
2019-05-05T03:44:38.276Z,91.70
2019-05-05T03:47:08.679Z,91.80
2019-05-05T03:49:39.150Z,91.80
2019-05-05T03:52:09.957Z,91.70
2019-05-05T03:54:40.725Z,91.80
2019-05-05T03:57:11.131Z,91.80
2019-05-05T03:59:44.512Z,91.80
2019-05-05T04:02:16.487Z,91.90
2019-05-05T04:04:48.467Z,92.20
2019-05-05T04:07:19.068Z,92.20
2019-05-05T04:09:50.337Z,92.20
2019-05-05T04:12:26.157Z,92.30
2019-05-05T04:15:15.829Z,92.30
2019-05-05T04:18:05.934Z,92.40
2019-05-05T04:20:48.683Z,92.50
2019-05-05T04:23:19.027Z,92.50
2019-05-05T04:26:03.702Z,92.70
2019-05-05T04:28:34.545Z,92.70
2019-05-05T04:31:17.426Z,92.80
2019-05-05T04:33:47.770Z,92.90
2019-05-05T04:36:19.445Z,93.00
2019-05-05T04:39:03.773Z,93.00
2019-05-05T04:41:54.940Z,93.00
2019-05-05T04:44:25.272Z,92.90
2019-05-05T04:46:57.240Z,92.90
2019-05-05T04:52:28.542Z,92.80
2019-05-05T04:54:58.872Z,92.90
2019-05-05T04:57:29.205Z,92.80
2019-05-05T04:59:59.553Z,92.80
2019-05-05T05:05:25.167Z,92.60
2019-05-05T05:07:57.959Z,92.60
2019-05-05T05:10:28.775Z,92.80
2019-05-05T05:12:59.106Z,92.40
2019-05-05T05:15:29.426Z,92.70
2019-05-05T05:18:14.766Z,92.20
2019-05-05T05:20:45.839Z,92.20
2019-05-05T05:23:16.180Z,91.50
2019-05-05T05:25:46.509Z,91.10
2019-05-05T05:28:17.078Z,91.00
2019-05-05T05:30:47.408Z,90.80
2019-05-05T05:33:17.835Z,90.80
2019-05-05T05:35:48.164Z,90.50
2019-05-05T05:38:18.493Z,90.50
2019-05-05T05:40:56.606Z,90.20
2019-05-05T05:43:34.540Z,89.20
2019-05-05T05:46:21.623Z,89.00
2019-05-05T05:48:53.996Z,88.90
2019-05-05T05:51:24.415Z,88.90
2019-05-05T05:53:55.848Z,89.00
2019-05-05T05:56:26.192Z,89.20
2019-05-05T05:58:56.533Z,89.60
2019-05-05T06:01:26.870Z,88.60
2019-05-05T06:03:57.205Z,88.70
2019-05-05T06:06:27.534Z,88.80
2019-05-05T06:08:57.872Z,86.00
2019-05-05T06:11:28.196Z,85.60
2019-05-05T06:13:58.534Z,85.30
2019-05-05T06:16:28.860Z,85.50
2019-05-05T06:18:59.199Z,85.40
2019-05-05T06:21:29.535Z,85.30
2019-05-05T06:23:59.863Z,84.90
2019-05-05T06:26:30.210Z,84.60
2019-05-05T06:29:00.529Z,84.50
2019-05-05T06:31:30.861Z,84.40
2019-05-05T06:34:01.196Z,83.00
2019-05-05T06:36:31.528Z,80.70
2019-05-05T06:39:01.872Z,77.50
2019-05-05T06:41:35.122Z,74.90
2019-05-05T06:44:07.098Z,70.80
2019-05-05T06:46:45.326Z,68.30
2019-05-05T06:49:15.666Z,67.60
2019-05-05T06:51:46.001Z,61.70
2019-05-05T06:54:16.352Z,61.90
2019-05-05T06:56:46.736Z,62.20
2019-05-05T06:59:17.075Z,60.10
2019-05-05T07:01:47.404Z,59.00
2019-05-05T07:04:17.744Z,55.50
2019-05-05T07:06:54.166Z,56.30
2019-05-05T07:09:20.114Z,51.70
2019-05-05T07:11:50.447Z,52.80
2019-05-05T07:14:20.788Z,51.30
2019-05-05T07:16:51.196Z,50.00
2019-05-05T07:19:21.540Z,52.20
2019-05-05T07:21:53.803Z,53.60
2019-05-05T07:24:24.044Z,53.00
2019-05-05T07:26:54.373Z,53.70
2019-05-05T07:29:24.670Z,52.80
2019-05-05T07:31:55.008Z,53.60
2019-05-05T07:34:26.998Z,52.60
2019-05-05T07:36:57.447Z,50.90
2019-05-05T07:39:28.246Z,49.10
2019-05-05T07:42:00.582Z,48.90
2019-05-05T07:44:30.913Z,45.20
2019-05-05T07:47:03.604Z,44.90
2019-05-05T07:49:34.034Z,44.40
2019-05-05T07:52:04.385Z,45.00
2019-05-05T07:54:34.704Z,44.10
2019-05-05T07:57:05.047Z,42.80
2019-05-05T07:59:35.390Z,41.70
2019-05-05T08:02:05.958Z,44.50
2019-05-05T08:08:06.628Z,44.50
2019-05-05T08:10:37.080Z,46.80
2019-05-05T08:13:07.434Z,45.70
2019-05-05T08:15:38.730Z,47.60
2019-05-05T08:18:24.298Z,47.80
2019-05-05T08:20:59.383Z,47.90
2019-05-05T08:23:44.749Z,48.80
2019-05-05T08:26:16.794Z,48.20
2019-05-05T08:28:51.519Z,46.50
2019-05-05T08:31:27.332Z,47.70
2019-05-05T08:33:57.689Z,43.90
2019-05-05T08:36:28.046Z,44.50
2019-05-05T08:38:59.305Z,44.10
2019-05-05T08:41:29.650Z,43.50
2019-05-05T08:43:59.983Z,45.40
2019-05-05T08:46:30.329Z,45.90
2019-05-05T08:49:00.659Z,44.90
2019-05-05T08:51:30.998Z,46.10
2019-05-05T08:54:01.332Z,45.10
2019-05-05T08:56:34.383Z,44.70
2019-05-05T08:59:04.838Z,45.30
2019-05-05T09:01:35.258Z,44.80
2019-05-05T09:04:05.694Z,45.40
2019-05-05T09:06:37.753Z,46.80
2019-05-05T09:09:08.822Z,48.90
2019-05-05T09:11:39.435Z,49.10
2019-05-05T09:14:09.842Z,49.50
2019-05-05T09:16:40.217Z,49.00
2019-05-05T09:19:14.529Z,47.80
2019-05-05T09:21:44.841Z,47.80
2019-05-05T09:24:34.107Z,48.90
2019-05-05T09:27:15.937Z,49.70
2019-05-05T09:29:46.557Z,50.60
2019-05-05T09:32:16.918Z,51.80
2019-05-05T09:34:47.255Z,51.50
2019-05-05T09:37:18.745Z,51.40
2019-05-05T09:39:49.094Z,51.90
2019-05-05T09:42:19.470Z,50.70
2019-05-05T09:44:49.812Z,51.60
2019-05-05T09:47:20.170Z,51.70
2019-05-05T09:49:50.511Z,50.90
2019-05-05T09:52:20.847Z,50.80
2019-05-05T09:54:51.222Z,50.50
2019-05-05T09:57:23.674Z,48.00
2019-05-05T09:59:55.259Z,48.20
2019-05-05T10:02:26.620Z,48.80
2019-05-05T10:04:56.934Z,51.00
2019-05-05T10:07:27.302Z,54.60
2019-05-05T10:09:57.652Z,53.40
2019-05-05T10:12:27.995Z,54.90
2019-05-05T10:14:58.333Z,57.30
2019-05-05T10:17:28.698Z,58.00
2019-05-05T10:19:59.029Z,59.90
2019-05-05T10:22:29.458Z,59.80
2019-05-05T10:25:19.502Z,59.60
2019-05-05T10:27:49.859Z,60.80
2019-05-05T10:30:20.195Z,61.50
2019-05-05T10:32:50.553Z,62.20
2019-05-05T10:35:20.916Z,61.70
2019-05-05T10:37:51.348Z,61.30
2019-05-05T10:40:29.268Z,60.10
2019-05-05T10:42:59.604Z,59.70
2019-05-05T10:45:29.956Z,57.50
2019-05-05T10:48:00.310Z,56.50
2019-05-05T10:50:30.656Z,57.50
2019-05-05T10:53:00.997Z,56.80
2019-05-05T10:55:31.359Z,56.60
2019-05-05T10:58:02.999Z,58.30
2019-05-05T11:00:50.694Z,57.20
2019-05-05T11:03:21.041Z,57.70
2019-05-05T11:05:51.471Z,57.70
2019-05-05T11:08:24.053Z,59.40
2019-05-05T11:10:54.599Z,60.50
2019-05-05T11:13:24.999Z,61.20
2019-05-05T11:15:55.353Z,63.30
2019-05-05T11:18:25.756Z,64.20
2019-05-05T11:20:56.105Z,65.20
2019-05-05T11:23:26.466Z,61.00
2019-05-05T11:25:56.805Z,61.30
2019-05-05T11:28:27.152Z,59.70
2019-05-05T11:30:57.499Z,60.50
2019-05-05T11:33:35.460Z,60.20
2019-05-05T11:36:07.712Z,59.80
2019-05-05T11:38:41.166Z,60.40
2019-05-05T11:41:10.121Z,59.40
2019-05-05T11:43:40.537Z,59.10
2019-05-05T11:46:10.887Z,58.30
2019-05-05T11:48:41.237Z,59.70
2019-05-05T11:51:11.583Z,59.00
2019-05-05T11:53:41.938Z,58.70
2019-05-05T11:56:14.342Z,58.40
2019-05-05T11:58:44.512Z,57.60
2019-05-05T12:01:14.959Z,57.40
2019-05-05T12:03:45.312Z,56.20
2019-05-05T12:06:15.700Z,56.30
2019-05-05T12:08:46.183Z,53.50
2019-05-05T12:11:16.450Z,53.40
2019-05-05T12:13:47.880Z,53.90
2019-05-05T12:16:19.862Z,52.70
2019-05-05T12:18:50.205Z,51.90
2019-05-05T12:21:20.552Z,51.50
2019-05-05T12:23:50.923Z,50.70
2019-05-05T12:26:24.321Z,50.80
2019-05-05T12:28:56.480Z,44.70
2019-05-05T12:31:28.494Z,44.30
2019-05-05T12:33:58.849Z,42.50
2019-05-05T12:36:29.197Z,43.40
2019-05-05T12:39:00.828Z,43.40
2019-05-05T12:41:32.789Z,42.20
2019-05-05T12:44:04.505Z,42.10
2019-05-05T12:46:36.498Z,42.40
2019-05-05T12:49:08.483Z,43.10
2019-05-05T12:51:38.833Z,42.60
2019-05-05T12:54:09.173Z,43.50
2019-05-05T12:56:39.547Z,43.10
2019-05-05T12:59:14.170Z,43.20
2019-05-05T13:01:44.458Z,40.30
2019-05-05T13:04:17.239Z,40.40
2019-05-05T13:06:47.647Z,40.00
2019-05-05T13:09:18.697Z,40.50
2019-05-05T13:11:49.050Z,41.40
2019-05-05T13:14:19.391Z,43.30
2019-05-05T13:16:53.306Z,44.40
2019-05-05T13:19:26.124Z,44.30
2019-05-05T13:22:05.028Z,45.50
2019-05-05T13:24:37.035Z,45.80
2019-05-05T13:27:11.143Z,45.90
2019-05-05T13:29:41.092Z,45.90
2019-05-05T13:32:11.425Z,45.40
2019-05-05T13:34:43.828Z,46.50
2019-05-05T13:37:14.156Z,45.50
2019-05-05T13:39:44.683Z,46.30
2019-05-05T13:42:15.012Z,45.60
2019-05-05T13:44:49.973Z,49.00
2019-05-05T13:47:20.327Z,52.20
2019-05-05T13:49:54.194Z,53.80
2019-05-05T13:52:24.527Z,55.60
2019-05-05T13:54:54.782Z,56.40
2019-05-05T13:57:25.112Z,57.40
2019-05-05T13:59:55.468Z,56.30
2019-05-05T14:02:25.801Z,56.70
2019-05-05T14:04:56.148Z,57.90
2019-05-05T14:07:26.491Z,58.40
2019-05-05T14:09:59.005Z,58.90
2019-05-05T14:12:28.880Z,58.60
2019-05-05T14:14:59.225Z,59.60
2019-05-05T14:17:29.564Z,61.00
2019-05-05T14:20:05.294Z,64.60
2019-05-05T14:22:32.143Z,67.50
2019-05-05T14:25:07.317Z,66.40
2019-05-05T14:27:38.001Z,69.80
2019-05-05T14:30:16.726Z,72.30
2019-05-05T14:32:47.441Z,73.20
2019-05-05T14:35:19.635Z,73.40
2019-05-05T14:37:53.367Z,75.50
2019-05-05T14:40:23.817Z,77.40
2019-05-05T14:42:54.148Z,78.50
2019-05-05T14:45:24.621Z,78.40
2019-05-05T14:47:56.513Z,77.80
2019-05-05T14:50:27.830Z,79.00
2019-05-05T14:52:58.168Z,78.40
2019-05-05T14:55:28.509Z,79.80
2019-05-05T14:57:58.860Z,79.30
2019-05-05T15:00:30.290Z,78.80
2019-05-05T15:03:00.686Z,77.80
2019-05-05T15:05:41.446Z,79.50
2019-05-05T15:08:25.427Z,79.00
2019-05-05T15:11:14.233Z,77.20
2019-05-05T15:13:44.791Z,77.40
2019-05-05T15:16:15.167Z,77.30
2019-05-05T15:18:45.503Z,76.10
2019-05-05T15:21:27.865Z,75.10
2019-05-05T15:23:58.217Z,74.80
2019-05-05T15:26:28.563Z,74.50
2019-05-05T15:29:01.657Z,73.60
2019-05-05T15:31:30.984Z,72.80
2019-05-05T15:34:01.332Z,73.30
2019-05-05T15:36:33.446Z,71.70
2019-05-05T15:39:06.266Z,72.30
2019-05-05T15:41:36.684Z,72.10
2019-05-05T15:44:07.029Z,72.40
2019-05-05T15:46:37.364Z,73.30
2019-05-05T15:49:07.698Z,73.00
2019-05-05T15:51:38.197Z,72.60
2019-05-05T15:54:08.533Z,71.60
2019-05-05T15:56:38.874Z,71.90
2019-05-05T15:59:09.219Z,72.80
2019-05-05T16:01:39.564Z,72.40
2019-05-05T16:04:09.939Z,72.80
2019-05-05T16:06:41.244Z,73.00
2019-05-05T16:09:13.606Z,72.20
2019-05-05T16:11:44.093Z,73.30
2019-05-05T16:14:15.680Z,72.40
2019-05-05T16:16:55.605Z,71.90
2019-05-05T16:19:36.021Z,70.70
2019-05-05T16:22:10.687Z,71.10
2019-05-05T16:24:44.622Z,70.60
2019-05-05T16:27:21.766Z,70.60
2019-05-05T16:29:46.758Z,70.60
2019-05-05T16:32:21.761Z,68.80
2019-05-05T16:34:49.476Z,69.70
2019-05-05T16:37:19.801Z,68.30
2019-05-05T16:39:50.160Z,68.60
2019-05-05T16:42:20.498Z,70.00
2019-05-05T16:44:50.844Z,69.50
2019-05-05T16:47:21.180Z,70.00
2019-05-05T16:49:53.527Z,71.00
2019-05-05T16:52:25.205Z,71.00
2019-05-05T16:54:59.613Z,70.50
2019-05-05T16:57:33.936Z,70.90
2019-05-05T17:00:01.983Z,71.60
2019-05-05T17:02:33.292Z,72.40
2019-05-05T17:05:05.163Z,71.50
2019-05-05T17:07:35.499Z,70.50
2019-05-05T17:10:06.741Z,70.00
2019-05-05T17:12:37.085Z,69.80
2019-05-05T17:15:09.394Z,70.20
2019-05-05T17:17:49.635Z,68.80
2019-05-05T17:20:21.262Z,68.70
2019-05-05T17:23:03.968Z,68.60
2019-05-05T17:25:34.364Z,68.30
2019-05-05T17:28:04.722Z,67.90
2019-05-05T17:30:35.522Z,68.70
2019-05-05T17:33:05.852Z,67.80
2019-05-05T17:35:36.188Z,67.10
2019-05-05T17:38:10.831Z,65.60
2019-05-05T17:40:45.707Z,66.10
2019-05-05T17:43:34.804Z,66.30
2019-05-05T17:46:15.762Z,68.30
2019-05-05T17:48:50.399Z,67.50
2019-05-05T17:51:31.443Z,68.10
2019-05-05T17:54:18.664Z,68.70
2019-05-05T17:56:49.027Z,69.60
2019-05-05T17:59:19.356Z,70.80
2019-05-05T18:01:49.691Z,71.00
2019-05-05T18:04:20.085Z,71.30
2019-05-05T18:06:54.781Z,71.60
2019-05-05T18:09:34.310Z,71.50
2019-05-05T18:12:17.832Z,72.40
2019-05-05T18:14:49.803Z,72.20
2019-05-05T18:17:20.154Z,72.20
2019-05-05T18:19:50.491Z,72.40
2019-05-05T18:22:20.815Z,72.80
2019-05-05T18:24:51.151Z,73.40
2019-05-05T18:27:23.544Z,73.20
2019-05-05T18:29:54.413Z,73.60
2019-05-05T18:32:24.834Z,73.50
2019-05-05T18:34:55.155Z,73.20
2019-05-05T18:37:25.484Z,73.10
2019-05-05T18:39:55.811Z,73.60
2019-05-05T18:42:26.172Z,73.90
2019-05-05T18:45:03.586Z,73.90
2019-05-05T18:47:34.160Z,74.00
2019-05-05T18:50:06.973Z,73.70
2019-05-05T18:52:37.304Z,73.50
2019-05-05T18:55:08.380Z,73.50
2019-05-05T18:57:38.778Z,73.90
2019-05-05T19:00:11.367Z,74.00
2019-05-05T19:02:44.316Z,74.70
2019-05-05T19:05:17.171Z,75.90
2019-05-05T19:07:55.435Z,76.60
2019-05-05T19:10:21.179Z,76.50
2019-05-05T19:12:53.952Z,76.30
2019-05-05T19:15:36.001Z,76.00
2019-05-05T19:18:06.778Z,76.20
2019-05-05T19:20:41.865Z,76.60
2019-05-05T19:23:14.635Z,76.40
2019-05-05T19:25:44.995Z,75.60
2019-05-05T19:28:15.405Z,76.30
2019-05-05T19:30:58.236Z,76.80
2019-05-05T19:33:28.566Z,76.80
2019-05-05T19:35:58.903Z,77.20
2019-05-05T19:38:30.303Z,78.00
2019-05-05T19:41:00.910Z,78.40
2019-05-05T19:43:54.767Z,78.80
2019-05-05T19:46:30.049Z,79.00
2019-05-05T19:49:20.060Z,79.40
2019-05-05T19:51:50.372Z,79.20
2019-05-05T19:54:20.777Z,80.00
2019-05-05T19:56:51.104Z,80.00
2019-05-05T19:59:21.448Z,80.10
2019-05-05T20:01:53.850Z,80.30
2019-05-05T20:04:24.187Z,80.80
2019-05-05T20:06:54.989Z,80.80
2019-05-05T20:09:25.323Z,81.10
2019-05-05T20:11:55.671Z,81.50
2019-05-05T20:14:26.007Z,81.50
2019-05-05T20:17:00.697Z,81.90
2019-05-05T20:19:34.167Z,82.10
2019-05-05T20:22:04.790Z,82.50
2019-05-05T20:24:35.408Z,82.90
2019-05-05T20:27:05.822Z,83.20
2019-05-05T20:29:37.519Z,84.20
2019-05-05T20:32:07.962Z,85.20
2019-05-05T20:34:45.969Z,85.20
2019-05-05T20:37:20.923Z,84.90
2019-05-05T20:39:51.574Z,85.50
2019-05-05T20:42:41.257Z,86.00
2019-05-05T20:45:14.611Z,86.30
2019-05-05T20:47:44.951Z,86.20
2019-05-05T20:50:15.312Z,86.20
2019-05-05T20:52:45.633Z,87.10
2019-05-05T20:55:28.365Z,85.90
2019-05-05T20:57:58.695Z,85.70
2019-05-05T21:00:29.041Z,85.90
2019-05-05T21:02:59.368Z,86.00
2019-05-05T21:05:29.703Z,86.10
2019-05-05T21:08:00.369Z,86.40
2019-05-05T21:10:44.260Z,86.60
2019-05-05T21:13:14.639Z,86.60
2019-05-05T21:15:46.123Z,86.60
2019-05-05T21:18:16.455Z,86.90
2019-05-05T21:20:46.858Z,87.10
2019-05-05T21:23:28.008Z,87.10
2019-05-05T21:26:04.288Z,87.10
2019-05-05T21:28:34.959Z,87.10
2019-05-05T21:31:05.313Z,87.20
2019-05-05T21:33:35.645Z,87.30
2019-05-05T21:36:05.984Z,87.10
2019-05-05T21:38:36.316Z,87.00
2019-05-05T21:41:06.660Z,87.00
2019-05-05T21:43:36.991Z,87.40
2019-05-05T21:46:07.336Z,87.90
2019-05-05T21:48:37.664Z,88.00
2019-05-05T21:51:15.643Z,88.10
2019-05-05T21:53:48.580Z,88.20
2019-05-05T21:56:37.071Z,88.50
2019-05-05T21:59:07.401Z,88.60
2019-05-05T22:01:40.669Z,88.60
2019-05-05T22:04:12.635Z,88.60
2019-05-05T22:06:42.978Z,88.60
2019-05-05T22:09:25.789Z,88.60
2019-05-05T22:12:15.481Z,88.90
2019-05-05T22:14:45.804Z,88.90
2019-05-05T22:17:16.143Z,89.40
2019-05-05T22:19:54.320Z,89.30
2019-05-05T22:22:27.272Z,89.40
2019-05-05T22:24:57.596Z,89.50
2019-05-05T22:27:27.951Z,89.80
2019-05-05T22:30:09.654Z,89.80
2019-05-05T22:32:30.303Z,90.00
2019-05-05T22:35:00.632Z,90.10
2019-05-05T22:37:30.967Z,90.50
2019-05-05T22:40:01.290Z,90.20
2019-05-05T22:42:31.620Z,90.20
2019-05-05T22:45:01.956Z,90.40
2019-05-05T22:47:34.499Z,90.60
2019-05-05T22:50:17.852Z,90.80
2019-05-05T22:52:48.179Z,90.80
2019-05-05T22:55:18.566Z,90.90
2019-05-05T22:57:48.900Z,90.80
2019-05-05T23:00:29.209Z,90.90
2019-05-05T23:03:18.767Z,90.90
2019-05-05T23:06:05.745Z,90.80
2019-05-05T23:08:36.068Z,90.80
2019-05-05T23:11:06.393Z,90.80
2019-05-05T23:13:36.730Z,90.90
2019-05-05T23:16:26.467Z,91.10
2019-05-05T23:18:58.676Z,91.40
2019-05-05T23:21:34.280Z,91.50
2019-05-05T23:24:14.324Z,91.50
2019-05-05T23:26:47.280Z,91.30
2019-05-05T23:29:17.599Z,91.30
2019-05-05T23:32:00.586Z,91.10
2019-05-05T23:34:50.264Z,91.00
2019-05-05T23:37:20.594Z,91.00
2019-05-05T23:39:50.937Z,91.00
2019-05-05T23:42:21.263Z,91.00
2019-05-05T23:44:53.482Z,90.80
2019-05-05T23:47:24.764Z,90.70
2019-05-05T23:50:14.600Z,90.60
2019-05-05T23:52:44.928Z,90.50
2019-05-05T23:55:15.503Z,90.60
2019-05-05T23:57:45.831Z,90.70
